Aérodrome :
LOGIN :

S'inscrire | Disclaimer

   EN    FR    IT 

 










Légende :    VFR   VFR Marginal   IFR   IFR Intensif   IFR Très Intensif
Visi : 
Plafond : 
>= 8 km
>= 3000ft
5 à 8 km
1000 à 3000 ft
1500m à 5 km
500 à 1000 ft
800 à 1500m
200 à 500 ft
< 800m
< 200 ft
Symboles :   Orages  Brouillard  Fortes neiges  Fortes précipitations  Vent > 20 kt
SIGMETs :   Divers  Orages  Givrage  Turbulence  Onde Orograph.  Cendres Volcan.







- Altitude de l'aérodrome : 0 ft


ENQA - Troll A Platform

DERNIER METAR :
  • 220750Z AUTO 29035KT 9999NDV FEW031/// BKN046/// 09/03 Q1017 W08/S6

METARs EXPIRÉS :
  • 220720Z AUTO 28032KT 9999NDV FEW035/// 08/03 Q1017 W07/S6
  • 220650Z AUTO 30037KT 4000NDV -RASN SCT024/// BKN047/// 06/02 Q1017 W06/S6
  • 220620Z AUTO 29037KT 9999NDV FEW026/// 08/02 Q1016 W07/S6
  • 220550Z AUTO 28037KT 9999NDV -SHRA BKN026/// BKN160/// 08/03 Q1016 W07/S6
  • 220520Z AUTO 28037KT 9999NDV FEW029/// SCT032/// 08/04 Q1016 W07/S6

TAF N/A
Pas de NOTAMs connus pour ce terrain.
1 SIGMET publié pour la FIR Norway (ENOR) :
 
Onde orographique forte
ENSV SIGMET B02 VALID 220600/220800 ENVV
ENOR NORWAY FIR SEV MTW FCST WI N5950 E00640 - N5950 E00615 - N6200 E00630 - N6200 E00730 - N6045 E00730 - N5950 E00640 FL200/400 STNR WKN=



MET'MAP, la Météo Aéronautique d'un coup d'oeil ! - Copyright ORBIFLY Décembre 2007 - Disclaimer

ORBIFLY MET'MAP TEAM :

Programmation & Développement : Alexandra Zaïnal
Conception & Développement : Baudouin d'Aumeries
Co-Programmation & Développement : Marc-Olivier Méhu
Soutien technique & logistique : Manuel Goepfert

Contact : metmap@orbifly.com




SOURCES & CREDITS :

   NOAA